Time;durP1;ratioP1;P1;durP2;ratioP2;P2;SDS_P1;SDS_P2;PMS_P1;PMS_P2;Temp;Humidity;BMP_temperature;BMP_pressure;BME280_temperature;BME280_humidity;BME280_pressure;Samples;Min_cycle;Max_cycle;Signal;HPM_P1;HPM_P2
2021/12/05 00:23:58;;;;;;;;;;;23.30;55.80;;;;;;5074603;28;19928;-58
2021/12/05 00:26:27;;;;;;;;;;;23.30;55.90;;;;;;5074722;28;19932;-58
2021/12/05 00:39:58;;;;;;;;;;;23.30;56.00;;;;;;5074721;28;19932;-58
2021/12/05 01:00:47;;;;;;;;;;;23.30;56.00;;;;;;5074365;28;19928;-56
2021/12/05 01:06:32;;;;;;;;;;;23.30;56.00;;;;;;5074081;28;19963;-59
2021/12/05 01:16:42;;;;;;;;;;;23.20;56.00;;;;;;5073931;28;19967;-58
2021/12/05 01:19:10;;;;;;;;;;;23.20;56.00;;;;;;5056170;28;19932;-56
2021/12/05 01:21:39;;;;;;;;;;;23.20;56.10;;;;;;5073749;28;19924;-59
2021/12/05 01:25:01;;;;;;;;;;;23.20;56.10;;;;;;5073600;28;19924;-60
2021/12/05 01:27:12;;;;;;;;;;;23.20;56.10;;;;;;5063328;28;19935;-55
2021/12/05 01:30:00;;;;;;;;;;;23.20;56.10;;;;;;5052587;28;19951;-57
2021/12/05 01:35:33;;;;;;;;;;;23.20;56.20;;;;;;5053972;28;20338;-56
2021/12/05 01:38:13;;;;;;;;;;;23.20;56.20;;;;;;5053964;28;20380;-59
2021/12/05 01:41:01;;;;;;;;;;;23.20;56.20;;;;;;5053854;28;19933;-59
2021/12/05 01:46:43;;;;;;;;;;;23.10;56.10;;;;;;5073663;28;19931;-54
2021/12/05 01:54:44;;;;;;;;;;;23.10;56.20;;;;;;5073355;28;19931;-57
2021/12/05 02:08:28;;;;;;;;;;;23.10;56.20;;;;;;5062706;28;20287;-59
2021/12/05 02:16:22;;;;;;;;;;;23.10;56.30;;;;;;5077236;28;20451;-59
2021/12/05 02:43:12;;;;;;;;;;;23.10;56.30;;;;;;5076810;28;20279;-60
2021/12/05 02:45:41;;;;;;;;;;;23.10;56.20;;;;;;5056690;28;19931;-57
2021/12/05 02:48:09;;;;;;;;;;;23.10;56.30;;;;;;5056915;28;20339;-59
2021/12/05 02:50:37;;;;;;;;;;;23.10;56.30;;;;;;5056561;28;19929;-55
2021/12/05 02:53:17;;;;;;;;;;;23.10;56.30;;;;;;5057530;28;19925;-58
2021/12/05 02:55:46;;;;;;;;;;;23.10;56.30;;;;;;5056822;28;19925;-60
2021/12/05 02:58:22;;;;;;;;;;;23.10;56.30;;;;;;5057002;28;20395;-55
2021/12/05 03:03:22;;;;;;;;;;;23.10;56.20;;;;;;5076340;28;19970;-58
2021/12/05 03:05:54;;;;;;;;;;;23.10;56.20;;;;;;5076260;28;20018;-58
2021/12/05 03:08:22;;;;;;;;;;;23.10;56.20;;;;;;5077173;28;19924;-58
2021/12/05 03:10:50;;;;;;;;;;;23.10;56.20;;;;;;5075869;28;20027;-51
2021/12/05 03:13:17;;;;;;;;;;;23.10;56.20;;;;;;5075374;28;19924;-59
2021/12/05 03:15:44;;;;;;;;;;;23.10;56.20;;;;;;5076125;28;19925;-56
2021/12/05 03:18:11;;;;;;;;;;;23.10;56.20;;;;;;5076382;28;19924;-58
2021/12/05 03:20:38;;;;;;;;;;;23.10;56.20;;;;;;5076269;28;19924;-59
2021/12/05 03:23:05;;;;;;;;;;;23.10;56.20;;;;;;5076076;28;19924;-60
2021/12/05 03:25:33;;;;;;;;;;;23.00;56.10;;;;;;5075936;28;19924;-55
2021/12/05 03:28:01;;;;;;;;;;;23.10;56.20;;;;;;5076187;28;20016;-59
2021/12/05 03:30:28;;;;;;;;;;;23.00;56.10;;;;;;5075373;28;19986;-57
2021/12/05 03:32:56;;;;;;;;;;;23.00;56.10;;;;;;5075662;28;19930;-56
2021/12/05 03:35:24;;;;;;;;;;;23.00;56.10;;;;;;5075711;28;19924;-57
2021/12/05 03:37:52;;;;;;;;;;;23.00;56.10;;;;;;5058380;28;19924;-59
2021/12/05 03:40:21;;;;;;;;;;;23.00;56.10;;;;;;5075584;28;19935;-58
2021/12/05 03:42:48;;;;;;;;;;;23.00;56.10;;;;;;5075928;28;20023;-57
2021/12/05 03:45:19;;;;;;;;;;;23.00;56.20;;;;;;5074350;28;19924;-56
2021/12/05 03:47:46;;;;;;;;;;;23.00;56.10;;;;;;5075533;28;19929;-53
2021/12/05 03:50:14;;;;;;;;;;;23.00;56.20;;;;;;5075403;28;19931;-60
2021/12/05 03:52:42;;;;;;;;;;;23.00;56.20;;;;;;5075543;28;19925;-58
2021/12/05 03:55:10;;;;;;;;;;;23.00;56.20;;;;;;5075681;28;19964;-58
2021/12/05 03:57:37;;;;;;;;;;;23.00;56.20;;;;;;5075123;28;19931;-58
2021/12/05 04:00:08;;;;;;;;;;;23.00;56.20;;;;;;5074301;28;19924;-56
2021/12/05 04:02:35;;;;;;;;;;;23.00;56.20;;;;;;5075137;28;20402;-59
2021/12/05 04:05:03;;;;;;;;;;;23.00;56.20;;;;;;5075168;28;19967;-56
2021/12/05 04:07:30;;;;;;;;;;;23.00;56.20;;;;;;5075382;28;19947;-58
2021/12/05 04:09:58;;;;;;;;;;;23.00;56.20;;;;;;5057713;28;19925;-58
2021/12/05 04:12:25;;;;;;;;;;;23.00;56.20;;;;;;5075053;28;20290;-60
2021/12/05 04:14:54;;;;;;;;;;;23.00;56.20;;;;;;5074350;28;20007;-59
2021/12/05 04:17:22;;;;;;;;;;;23.00;56.30;;;;;;5074918;28;19931;-57
2021/12/05 04:19:49;;;;;;;;;;;23.00;56.20;;;;;;5057240;28;19924;-60
2021/12/05 04:22:17;;;;;;;;;;;23.00;56.20;;;;;;5073893;28;19928;-58
2021/12/05 04:24:45;;;;;;;;;;;23.00;56.20;;;;;;5075065;28;19925;-59
2021/12/05 04:27:13;;;;;;;;;;;23.00;56.20;;;;;;5075054;28;19963;-57
2021/12/05 04:29:40;;;;;;;;;;;23.00;56.20;;;;;;5073533;28;19925;-59
2021/12/05 04:32:08;;;;;;;;;;;23.00;56.10;;;;;;5074499;28;19998;-55
2021/12/05 04:34:35;;;;;;;;;;;23.00;56.20;;;;;;5056988;28;19929;-58
2021/12/05 04:37:03;;;;;;;;;;;22.90;56.10;;;;;;5074520;28;19931;-56
2021/12/05 04:39:31;;;;;;;;;;;22.90;56.10;;;;;;5057186;28;19924;-56
2021/12/05 04:41:58;;;;;;;;;;;22.90;56.10;;;;;;5074677;28;19932;-58
2021/12/05 04:44:26;;;;;;;;;;;22.90;56.10;;;;;;5055694;28;19925;-55
2021/12/05 04:46:53;;;;;;;;;;;22.90;56.10;;;;;;5074659;28;20346;-59
2021/12/05 04:49:20;;;;;;;;;;;22.90;56.10;;;;;;5056647;28;20423;-57
2021/12/05 04:51:47;;;;;;;;;;;22.90;56.10;;;;;;5074239;28;19935;-59
2021/12/05 04:54:15;;;;;;;;;;;22.90;56.10;;;;;;5074355;28;19924;-57
2021/12/05 04:56:44;;;;;;;;;;;22.90;56.10;;;;;;5074477;28;19924;-56
2021/12/05 04:59:13;;;;;;;;;;;22.90;56.10;;;;;;5056308;28;19925;-52
2021/12/05 05:01:41;;;;;;;;;;;22.90;56.10;;;;;;5073301;28;20373;-51
2021/12/05 05:04:19;;;;;;;;;;;22.90;56.10;;;;;;5074354;28;19990;-57
2021/12/05 05:06:47;;;;;;;;;;;22.90;56.70;;;;;;5074366;28;19928;-59
2021/12/05 05:09:14;;;;;;;;;;;22.90;56.10;;;;;;5074343;28;19924;-56
2021/12/05 05:11:41;;;;;;;;;;;22.90;56.10;;;;;;5056625;28;20023;-56
2021/12/05 05:14:09;;;;;;;;;;;22.90;56.10;;;;;;5073921;28;20306;-60
2021/12/05 05:16:36;;;;;;;;;;;22.90;56.10;;;;;;5072899;28;19924;-59
2021/12/05 05:19:04;;;;;;;;;;;22.80;56.10;;;;;;5073864;28;19928;-55
2021/12/05 05:21:53;;;;;;;;;;;22.80;56.10;;;;;;5074090;28;19928;-55
2021/12/05 05:51:01;;;;;;;;;;;22.80;56.10;;;;;;5073593;28;19931;-58
2021/12/05 05:53:29;;;;;;;;;;;22.80;56.10;;;;;;5073344;28;19925;-54
2021/12/05 05:55:56;;;;;;;;;;;22.80;56.10;;;;;;5073802;28;20342;-55
2021/12/05 05:58:35;;;;;;;;;;;22.80;56.10;;;;;;5073323;28;20015;-59
2021/12/05 06:01:06;;;;;;;;;;;22.80;56.10;;;;;;5072238;28;20387;-52
2021/12/05 06:03:33;;;;;;;;;;;22.80;56.10;;;;;;5073754;28;19968;-59
2021/12/05 06:06:02;;;;;;;;;;;22.80;56.10;;;;;;5073477;28;19924;-54
2021/12/05 06:08:30;;;;;;;;;;;22.80;56.10;;;;;;5073407;28;19931;-58
2021/12/05 06:10:59;;;;;;;;;;;22.80;56.70;;;;;;5073370;28;19928;-57
2021/12/05 06:13:28;;;;;;;;;;;22.80;56.10;;;;;;5073358;28;19936;-54
2021/12/05 06:15:55;;;;;;;;;;;22.80;56.10;;;;;;5072318;28;19924;-59
2021/12/05 06:18:22;;;;;;;;;;;22.80;56.10;;;;;;5073614;28;20277;-59
2021/12/05 06:20:50;;;;;;;;;;;22.80;56.10;;;;;;5055778;28;19931;-60
2021/12/05 06:23:18;;;;;;;;;;;22.80;56.10;;;;;;5073077;28;20442;-58
2021/12/05 06:25:47;;;;;;;;;;;22.80;56.10;;;;;;5073531;28;20287;-59
2021/12/05 06:28:16;;;;;;;;;;;22.80;56.10;;;;;;5073187;28;20322;-58
2021/12/05 06:30:54;;;;;;;;;;;22.70;56.00;;;;;;5072121;28;19935;-57
2021/12/05 06:47:13;;;;;;;;;;;22.70;56.10;;;;;;5013421;28;20293;-52
2021/12/05 06:49:41;;;;;;;;;;;22.70;56.00;;;;;;5014836;28;19926;-58
2021/12/05 06:52:28;;;;;;;;;;;22.70;56.00;;;;;;5014742;28;19930;-58
2021/12/05 06:54:55;;;;;;;;;;;22.70;56.00;;;;;;5014814;28;19925;-58
2021/12/05 06:57:22;;;;;;;;;;;22.70;56.00;;;;;;5014560;28;19929;-59
2021/12/05 06:59:49;;;;;;;;;;;22.70;56.00;;;;;;5014749;28;19926;-55
2021/12/05 07:02:18;;;;;;;;;;;22.70;56.00;;;;;;5012991;28;19925;-58
2021/12/05 07:07:32;;;;;;;;;;;22.70;56.00;;;;;;5014579;28;19930;-56
2021/12/05 07:10:00;;;;;;;;;;;22.70;56.00;;;;;;5014511;28;19932;-56
2021/12/05 07:13:19;;;;;;;;;;;22.70;56.00;;;;;;5014437;28;20008;-58
2021/12/05 07:15:57;;;;;;;;;;;22.70;56.00;;;;;;5014353;28;19929;-59
2021/12/05 07:18:42;;;;;;;;;;;22.70;56.00;;;;;;5050629;28;19924;-59
2021/12/05 07:40:28;;;;;;;;;;;22.70;56.00;;;;;;5076019;28;20295;-58
2021/12/05 07:43:00;;;;;;;;;;;22.70;55.90;;;;;;5075624;28;20380;-57
2021/12/05 07:45:34;;;;;;;;;;;22.70;55.90;;;;;;5075922;28;19931;-55
2021/12/05 07:48:10;;;;;;;;;;;22.70;56.00;;;;;;5074343;28;19924;-54
2021/12/05 07:50:49;;;;;;;;;;;22.70;55.90;;;;;;5075534;28;19931;-56
2021/12/05 07:53:26;;;;;;;;;;;22.70;55.90;;;;;;5076443;28;20288;-53
2021/12/05 07:55:58;;;;;;;;;;;22.70;55.90;;;;;;5075438;28;20347;-58
2021/12/05 08:14:23;;;;;;;;;;;22.70;55.90;;;;;;5075256;28;19978;-58
2021/12/05 08:17:36;;;;;;;;;;;22.70;55.80;;;;;;5021665;28;20008;-56
2021/12/05 08:20:09;;;;;;;;;;;22.70;55.80;;;;;;4997007;28;19925;-60
2021/12/05 08:22:36;;;;;;;;;;;22.70;55.70;;;;;;5012937;28;19925;-59
2021/12/05 08:25:09;;;;;;;;;;;22.70;55.70;;;;;;5013276;28;19948;-56
2021/12/05 08:27:39;;;;;;;;;;;22.70;55.70;;;;;;5013062;28;19925;-55
2021/12/05 08:30:11;;;;;;;;;;;22.70;55.70;;;;;;5013002;28;20282;-53
2021/12/05 08:43:56;;;;;;;;;;;22.80;55.70;;;;;;5012779;28;19925;-58
2021/12/05 09:20:26;;;;;;;;;;;22.80;55.50;;;;;;5081461;28;19930;-59
2021/12/05 09:20:34;;;;;;;;;;;22.80;55.50;;;;;;5091930;28;19928;-59
2021/12/05 10:11:33;;;;;;;;;;;23.00;55.20;;;;;;5093568;28;19924;-57
2021/12/05 10:14:28;;;;;;;;;;;23.00;55.20;;;;;;5093601;28;19930;-59
2021/12/05 10:37:09;;;;;;;;;;;23.10;55.20;;;;;;5095648;28;20391;-59
2021/12/05 10:39:36;;;;;;;;;;;23.10;55.10;;;;;;5096700;28;19924;-60
2021/12/05 10:42:39;;;;;;;;;;;23.10;55.10;;;;;;5078959;28;19935;-51
2021/12/05 10:45:11;;;;;;;;;;;23.10;55.00;;;;;;5097293;28;19924;-58
2021/12/05 10:47:41;;;;;;;;;;;23.10;55.00;;;;;;5096999;28;19931;-54
2021/12/05 10:50:27;;;;;;;;;;;23.10;55.00;;;;;;5094181;28;19935;-57
2021/12/05 10:53:14;;;;;;;;;;;23.10;55.00;;;;;;5096650;28;19924;-57
2021/12/05 10:55:42;;;;;;;;;;;23.10;55.00;;;;;;5096418;28;19931;-54
2021/12/05 10:58:09;;;;;;;;;;;23.10;55.00;;;;;;5096505;28;20410;-59
2021/12/05 11:00:36;;;;;;;;;;;23.20;55.00;;;;;;5078642;28;19939;-59
2021/12/05 11:03:18;;;;;;;;;;;23.20;55.00;;;;;;5096559;28;20014;-54
2021/12/05 11:05:45;;;;;;;;;;;23.20;55.00;;;;;;5055507;28;20300;-54
2021/12/05 11:08:32;;;;;;;;;;;23.20;55.00;;;;;;5039007;28;19924;-56
2021/12/05 11:11:10;;;;;;;;;;;23.20;54.90;;;;;;5056499;28;19929;-57
2021/12/05 11:13:38;;;;;;;;;;;23.20;54.90;;;;;;5056553;28;19925;-56
2021/12/05 11:16:25;;;;;;;;;;;23.20;54.90;;;;;;5056444;28;20031;-59
2021/12/05 11:18:52;;;;;;;;;;;23.30;55.00;;;;;;5045148;28;19978;-59
2021/12/05 11:21:23;;;;;;;;;;;23.30;55.00;;;;;;5096308;28;19935;-55
2021/12/05 11:24:06;;;;;;;;;;;23.30;54.90;;;;;;5096310;28;19924;-58
2021/12/05 11:26:34;;;;;;;;;;;23.30;54.90;;;;;;5096514;28;20031;-57
2021/12/05 11:29:02;;;;;;;;;;;23.30;54.90;;;;;;5095927;28;19925;-57
2021/12/05 11:31:32;;;;;;;;;;;23.30;54.90;;;;;;5095515;28;20306;-59
2021/12/05 11:33:59;;;;;;;;;;;23.30;54.80;;;;;;5093653;28;20410;-58
2021/12/05 11:36:28;;;;;;;;;;;23.30;54.80;;;;;;5096074;28;19928;-57
2021/12/05 11:38:55;;;;;;;;;;;23.30;54.80;;;;;;5095938;28;20019;-57
2021/12/05 11:41:23;;;;;;;;;;;23.30;54.80;;;;;;5095774;28;20019;-59
2021/12/05 11:43:56;;;;;;;;;;;23.30;54.80;;;;;;5096004;28;19950;-58
2021/12/05 11:46:31;;;;;;;;;;;23.30;54.90;;;;;;5096179;28;20335;-57
2021/12/05 11:49:00;;;;;;;;;;;23.30;54.80;;;;;;5093392;28;19933;-58
2021/12/05 11:51:29;;;;;;;;;;;23.30;54.90;;;;;;5077922;28;19932;-54
2021/12/05 11:53:59;;;;;;;;;;;23.30;54.90;;;;;;5095571;28;20322;-55
2021/12/05 11:56:29;;;;;;;;;;;23.30;54.90;;;;;;5078083;28;19930;-55
2021/12/05 11:59:15;;;;;;;;;;;23.30;55.00;;;;;;5095462;28;19931;-58
2021/12/05 12:01:48;;;;;;;;;;;23.30;55.00;;;;;;5094429;28;19924;-54
2021/12/05 12:04:17;;;;;;;;;;;23.30;55.00;;;;;;5058415;28;19928;-55
2021/12/05 12:06:45;;;;;;;;;;;23.30;55.00;;;;;;5075411;28;19932;-57
2021/12/05 12:09:13;;;;;;;;;;;23.40;55.10;;;;;;5074481;28;20326;-58
2021/12/05 12:11:40;;;;;;;;;;;23.40;55.10;;;;;;5075034;28;20011;-56
2021/12/05 12:14:07;;;;;;;;;;;23.30;55.00;;;;;;5074490;28;19928;-57
2021/12/05 12:16:35;;;;;;;;;;;23.40;55.10;;;;;;5074707;28;19925;-54
2021/12/05 12:19:03;;;;;;;;;;;23.40;55.20;;;;;;5074459;28;19990;-50
2021/12/05 12:21:38;;;;;;;;;;;23.40;55.20;;;;;;5074741;28;19928;-59
2021/12/05 12:24:06;;;;;;;;;;;23.40;55.20;;;;;;5074617;28;19929;-55
2021/12/05 12:26:33;;;;;;;;;;;23.40;55.20;;;;;;5075110;28;20011;-55
2021/12/05 12:29:00;;;;;;;;;;;23.40;55.20;;;;;;5057130;28;19928;-56
2021/12/05 12:31:32;;;;;;;;;;;23.40;55.10;;;;;;5074876;28;20342;-59
2021/12/05 12:34:01;;;;;;;;;;;23.40;55.10;;;;;;5074976;28;19924;-54
2021/12/05 12:36:35;;;;;;;;;;;23.40;55.00;;;;;;5056093;28;19925;-55
2021/12/05 12:39:04;;;;;;;;;;;23.40;55.00;;;;;;5074555;28;19924;-51
2021/12/05 12:41:32;;;;;;;;;;;23.40;55.00;;;;;;5074477;28;20023;-57
2021/12/05 12:44:07;;;;;;;;;;;23.50;55.10;;;;;;5074284;28;20293;-58
2021/12/05 12:46:38;;;;;;;;;;;23.50;55.10;;;;;;5074272;28;20011;-56
2021/12/05 12:49:14;;;;;;;;;;;23.50;55.10;;;;;;5074236;28;19925;-51
2021/12/05 12:51:45;;;;;;;;;;;23.50;55.10;;;;;;5073787;28;20401;-58
2021/12/05 12:54:14;;;;;;;;;;;23.50;55.10;;;;;;5074387;28;19975;-57
2021/12/05 12:56:43;;;;;;;;;;;23.40;55.00;;;;;;5074504;28;20287;-55
2021/12/05 12:59:12;;;;;;;;;;;23.50;55.10;;;;;;5074078;28;19958;-58
2021/12/05 13:10:03;;;;;;;;;;;23.40;55.00;;;;;;5074354;28;19925;-58
2021/12/05 13:12:40;;;;;;;;;;;23.50;55.10;;;;;;5073986;28;20038;-57
2021/12/05 13:15:16;;;;;;;;;;;23.50;55.10;;;;;;5073943;28;19924;-58
2021/12/05 13:17:45;;;;;;;;;;;23.50;55.00;;;;;;5073915;28;19931;-56
2021/12/05 13:20:14;;;;;;;;;;;23.50;55.10;;;;;;5055472;28;19925;-57
2021/12/05 13:23:01;;;;;;;;;;;23.50;55.10;;;;;;5056202;28;19928;-58
2021/12/05 13:25:29;;;;;;;;;;;23.40;55.00;;;;;;5073836;28;19950;-58
2021/12/05 13:27:57;;;;;;;;;;;23.50;55.10;;;;;;5073744;28;19924;-58
2021/12/05 13:30:31;;;;;;;;;;;23.50;55.10;;;;;;5073607;28;19931;-58
2021/12/05 13:33:17;;;;;;;;;;;23.50;55.10;;;;;;5074103;28;20012;-58
2021/12/05 13:35:45;;;;;;;;;;;23.50;55.10;;;;;;5072796;28;20015;-58
2021/12/05 13:38:31;;;;;;;;;;;23.40;55.00;;;;;;5073947;28;19998;-57
2021/12/05 13:41:15;;;;;;;;;;;23.50;55.10;;;;;;5073924;28;19931;-58
2021/12/05 13:43:56;;;;;;;;;;;23.40;55.00;;;;;;5073866;28;20283;-58
2021/12/05 13:46:32;;;;;;;;;;;23.40;55.00;;;;;;5073573;28;19977;-57
2021/12/05 13:49:00;;;;;;;;;;;23.40;55.00;;;;;;5074593;28;20272;-58
2021/12/05 13:51:28;;;;;;;;;;;23.40;55.00;;;;;;5055033;28;20019;-53
2021/12/05 13:53:59;;;;;;;;;;;23.40;55.70;;;;;;5073339;28;19950;-55
2021/12/05 13:56:27;;;;;;;;;;;23.50;55.20;;;;;;5077589;28;19925;-56
2021/12/05 13:59:02;;;;;;;;;;;23.40;55.00;;;;;;5059862;28;19924;-53
2021/12/05 14:01:29;;;;;;;;;;;23.50;55.10;;;;;;5059812;28;19924;-57
2021/12/05 14:04:03;;;;;;;;;;;23.40;55.00;;;;;;5077779;28;20327;-49
2021/12/05 14:06:30;;;;;;;;;;;23.40;55.00;;;;;;5077316;28;19925;-52
2021/12/05 14:09:03;;;;;;;;;;;23.40;55.00;;;;;;5077404;28;20344;-55
2021/12/05 14:11:31;;;;;;;;;;;23.40;55.00;;;;;;5077397;28;19968;-57
2021/12/05 14:14:01;;;;;;;;;;;23.40;55.00;;;;;;5077705;28;20384;-57
2021/12/05 14:16:32;;;;;;;;;;;23.40;55.00;;;;;;5077605;28;19931;-49
2021/12/05 14:18:59;;;;;;;;;;;23.40;55.00;;;;;;5077297;28;20015;-57
2021/12/05 14:21:27;;;;;;;;;;;23.40;55.00;;;;;;5076610;28;19925;-52
2021/12/05 14:23:56;;;;;;;;;;;23.40;55.00;;;;;;5059201;28;19924;-58
2021/12/05 14:26:27;;;;;;;;;;;23.40;55.00;;;;;;5077047;28;19930;-57
2021/12/05 14:28:56;;;;;;;;;;;23.40;55.00;;;;;;5077010;28;19943;-52
2021/12/05 14:31:25;;;;;;;;;;;23.40;55.00;;;;;;5077140;28;19924;-51
2021/12/05 14:33:53;;;;;;;;;;;23.40;55.00;;;;;;5076824;28;20459;-54
2021/12/05 14:36:22;;;;;;;;;;;23.40;55.00;;;;;;5075976;28;19925;-55
2021/12/05 14:39:10;;;;;;;;;;;23.40;55.00;;;;;;5076875;28;19924;-53
2021/12/05 14:41:37;;;;;;;;;;;23.40;55.00;;;;;;5059038;28;19931;-57
2021/12/05 14:44:05;;;;;;;;;;;23.40;55.00;;;;;;5077023;28;20279;-58
2021/12/05 14:46:32;;;;;;;;;;;23.40;55.00;;;;;;5076992;28;19935;-52
2021/12/05 14:49:02;;;;;;;;;;;23.40;55.00;;;;;;5076674;28;19924;-51
2021/12/05 14:51:33;;;;;;;;;;;23.40;55.00;;;;;;5075661;28;19930;-57
2021/12/05 14:54:01;;;;;;;;;;;23.40;55.00;;;;;;5058734;28;19950;-53
2021/12/05 14:56:29;;;;;;;;;;;23.40;55.00;;;;;;5076540;28;19939;-54
2021/12/05 14:59:05;;;;;;;;;;;23.40;54.90;;;;;;5076358;28;19924;-55
2021/12/05 15:01:33;;;;;;;;;;;23.40;55.00;;;;;;5076343;28;20383;-54
2021/12/05 15:04:02;;;;;;;;;;;23.40;54.90;;;;;;5077180;28;19928;-55
2021/12/05 15:06:33;;;;;;;;;;;23.40;54.90;;;;;;5074789;28;19925;-53
2021/12/05 15:09:01;;;;;;;;;;;23.40;55.00;;;;;;5076644;28;19928;-52
2021/12/05 15:11:28;;;;;;;;;;;23.40;54.90;;;;;;5076282;28;19932;-52
2021/12/05 15:14:05;;;;;;;;;;;23.40;54.90;;;;;;5076552;28;19924;-53
2021/12/05 15:16:32;;;;;;;;;;;23.40;55.00;;;;;;5076173;28;19924;-55
2021/12/05 15:19:00;;;;;;;;;;;23.40;55.00;;;;;;5076180;28;20289;-52
2021/12/05 15:21:27;;;;;;;;;;;23.40;54.90;;;;;;5075606;28;20289;-54
2021/12/05 15:23:54;;;;;;;;;;;23.40;54.90;;;;;;5076079;28;19966;-57
2021/12/05 15:26:22;;;;;;;;;;;23.40;54.90;;;;;;5076337;28;19929;-57
2021/12/05 15:28:49;;;;;;;;;;;23.40;55.00;;;;;;5075979;28;20057;-56
2021/12/05 15:31:36;;;;;;;;;;;23.40;55.50;;;;;;5076078;28;20425;-50
2021/12/05 15:34:16;;;;;;;;;;;23.40;55.00;;;;;;5076210;28;19968;-53
2021/12/05 15:36:44;;;;;;;;;;;23.40;55.00;;;;;;5074782;28;19931;-58
2021/12/05 15:39:19;;;;;;;;;;;23.40;55.00;;;;;;5075673;28;19928;-57
2021/12/05 15:41:47;;;;;;;;;;;23.40;55.00;;;;;;5076095;28;20011;-52
2021/12/05 15:44:32;;;;;;;;;;;23.40;55.10;;;;;;5058163;28;19925;-57
2021/12/05 15:47:00;;;;;;;;;;;23.40;55.10;;;;;;5075951;28;20283;-53
2021/12/05 15:49:39;;;;;;;;;;;23.40;55.10;;;;;;5075901;28;19931;-51
2021/12/05 15:52:07;;;;;;;;;;;23.40;55.10;;;;;;5074622;28;19924;-53
2021/12/05 15:54:34;;;;;;;;;;;23.40;55.10;;;;;;5074702;28;19932;-53
2021/12/05 15:57:13;;;;;;;;;;;23.40;55.10;;;;;;5074757;28;20015;-54
2021/12/05 15:59:43;;;;;;;;;;;23.40;55.20;;;;;;5055353;28;19925;-51
2021/12/05 16:02:11;;;;;;;;;;;23.40;55.20;;;;;;5038122;28;19931;-53
2021/12/05 16:04:41;;;;;;;;;;;23.50;55.30;;;;;;5055428;28;19934;-56
2021/12/05 16:07:10;;;;;;;;;;;23.40;55.30;;;;;;5061296;28;20019;-54
2021/12/05 16:09:39;;;;;;;;;;;23.40;55.30;;;;;;5075477;28;20040;-57
2021/12/05 16:12:10;;;;;;;;;;;23.50;55.40;;;;;;5057468;28;20377;-57
2021/12/05 16:14:39;;;;;;;;;;;23.50;55.40;;;;;;5074529;28;20158;-54
2021/12/05 16:17:16;;;;;;;;;;;23.50;55.40;;;;;;5073900;28;19928;-57
2021/12/05 16:20:02;;;;;;;;;;;23.50;55.40;;;;;;5075340;28;20291;-53
2021/12/05 16:22:29;;;;;;;;;;;23.50;55.40;;;;;;5073524;28;19970;-56
2021/12/05 16:24:56;;;;;;;;;;;23.50;55.50;;;;;;5075052;28;19925;-58
2021/12/05 16:27:23;;;;;;;;;;;23.50;55.50;;;;;;5074799;28;20443;-55
2021/12/05 16:29:50;;;;;;;;;;;23.50;55.50;;;;;;5074920;28;19924;-52
2021/12/05 16:32:18;;;;;;;;;;;23.50;55.60;;;;;;5075022;28;19925;-58
2021/12/05 16:34:48;;;;;;;;;;;23.50;55.60;;;;;;5074435;28;19931;-57
2021/12/05 16:37:16;;;;;;;;;;;23.50;55.60;;;;;;5073688;28;20010;-52
2021/12/05 16:39:45;;;;;;;;;;;23.50;55.70;;;;;;5075051;28;20011;-53
2021/12/05 16:42:14;;;;;;;;;;;23.50;55.70;;;;;;5074512;28;19935;-54
2021/12/05 16:45:03;;;;;;;;;;;23.50;55.70;;;;;;5074837;28;19928;-56
2021/12/05 16:47:31;;;;;;;;;;;23.50;55.70;;;;;;5074694;28;19925;-53
2021/12/05 16:49:59;;;;;;;;;;;23.50;55.70;;;;;;5074647;28;19940;-55
2021/12/05 16:52:47;;;;;;;;;;;23.50;55.80;;;;;;5073546;28;20015;-53
2021/12/05 16:55:25;;;;;;;;;;;23.50;55.80;;;;;;5074312;28;20027;-53
2021/12/05 17:00:31;;;;;;;;;;;23.50;55.80;;;;;;5074151;28;19924;-56
2021/12/05 17:03:00;;;;;;;;;;;23.50;55.80;;;;;;5075042;28;19964;-56
2021/12/05 17:05:28;;;;;;;;;;;23.50;55.80;;;;;;5074349;28;20325;-49
2021/12/05 17:10:44;;;;;;;;;;;23.50;55.80;;;;;;5074409;28;19924;-52
2021/12/05 17:13:17;;;;;;;;;;;23.50;55.80;;;;;;5074303;28;19974;-52
2021/12/05 17:15:44;;;;;;;;;;;23.50;55.80;;;;;;5073949;28;19956;-53
2021/12/05 17:18:19;;;;;;;;;;;23.50;55.80;;;;;;5074235;28;19925;-50
2021/12/05 17:20:48;;;;;;;;;;;23.50;55.80;;;;;;5073921;28;19931;-53
2021/12/05 17:23:20;;;;;;;;;;;23.50;55.80;;;;;;5055256;28;19928;-52
2021/12/05 17:25:49;;;;;;;;;;;23.50;55.80;;;;;;5073804;28;20016;-57
2021/12/05 17:28:34;;;;;;;;;;;23.50;56.40;;;;;;5073908;28;19925;-51
2021/12/05 17:31:07;;;;;;;;;;;23.50;55.80;;;;;;5073827;28;19999;-49
2021/12/05 17:33:39;;;;;;;;;;;23.50;55.80;;;;;;5073798;28;19931;-53
2021/12/05 17:36:25;;;;;;;;;;;23.50;55.80;;;;;;5073699;28;19924;-51
2021/12/05 17:38:55;;;;;;;;;;;23.50;55.80;;;;;;5073519;28;19963;-48
2021/12/05 17:41:24;;;;;;;;;;;23.50;55.80;;;;;;5073719;28;19928;-56
2021/12/05 17:43:51;;;;;;;;;;;23.50;55.80;;;;;;5073583;28;19932;-52
2021/12/05 17:46:18;;;;;;;;;;;23.50;55.80;;;;;;5073764;28;19931;-57
2021/12/05 17:48:45;;;;;;;;;;;23.50;55.80;;;;;;5073595;28;19979;-48
2021/12/05 17:51:13;;;;;;;;;;;23.50;55.80;;;;;;5073585;28;20023;-53
2021/12/05 17:53:40;;;;;;;;;;;23.50;55.80;;;;;;5072229;28;19930;-53
2021/12/05 17:56:18;;;;;;;;;;;23.50;55.80;;;;;;5055881;28;19925;-55
2021/12/05 17:59:04;;;;;;;;;;;23.50;55.80;;;;;;5073642;28;20384;-50
2021/12/05 18:04:19;;;;;;;;;;;23.50;55.80;;;;;;5073431;28;19931;-58
2021/12/05 18:06:46;;;;;;;;;;;23.50;55.80;;;;;;5055768;28;20306;-56
2021/12/05 18:09:14;;;;;;;;;;;23.50;55.80;;;;;;5072483;28;20334;-56
2021/12/05 18:11:41;;;;;;;;;;;23.50;55.80;;;;;;5073771;28;19924;-55
2021/12/05 18:14:08;;;;;;;;;;;23.50;55.80;;;;;;5073698;28;20338;-51
2021/12/05 18:16:36;;;;;;;;;;;23.50;55.80;;;;;;5073327;28;19924;-58
2021/12/05 18:19:05;;;;;;;;;;;23.50;55.80;;;;;;5073350;28;19928;-48
2021/12/05 18:21:36;;;;;;;;;;;23.50;55.70;;;;;;5073284;28;20307;-53
2021/12/05 18:24:05;;;;;;;;;;;23.50;55.80;;;;;;5071890;28;19929;-51
2021/12/05 18:26:33;;;;;;;;;;;23.50;55.70;;;;;;5073110;28;19931;-57
2021/12/05 18:29:00;;;;;;;;;;;23.50;55.70;;;;;;5055773;28;19970;-52
2021/12/05 18:31:28;;;;;;;;;;;23.50;55.70;;;;;;5073064;28;20391;-55
2021/12/05 18:33:57;;;;;;;;;;;23.50;55.70;;;;;;5073117;28;19924;-55
2021/12/05 18:36:25;;;;;;;;;;;23.50;55.70;;;;;;5073147;28;19924;-58
2021/12/05 18:38:52;;;;;;;;;;;23.50;55.70;;;;;;5072121;28;19928;-57
2021/12/05 18:41:20;;;;;;;;;;;23.50;55.70;;;;;;5075030;28;20023;-47
2021/12/05 18:43:49;;;;;;;;;;;23.50;55.70;;;;;;5076808;28;19933;-54
2021/12/05 18:46:16;;;;;;;;;;;23.50;55.70;;;;;;5059171;28;19925;-53
2021/12/05 18:48:46;;;;;;;;;;;23.50;55.70;;;;;;5076732;28;19924;-52
2021/12/05 18:51:15;;;;;;;;;;;23.50;55.70;;;;;;5076677;28;19928;-51
2021/12/05 18:53:43;;;;;;;;;;;23.50;55.70;;;;;;5075570;28;19934;-51
2021/12/05 18:56:10;;;;;;;;;;;23.50;55.70;;;;;;5076571;28;19928;-51
2021/12/05 18:58:42;;;;;;;;;;;23.50;55.70;;;;;;5076502;28;19931;-53
2021/12/05 19:06:49;;;;;;;;;;;23.50;55.70;;;;;;5076228;28;20216;-57
2021/12/05 19:11:39;;;;;;;;;;;23.50;55.70;;;;;;5075778;28;20299;-52
2021/12/05 19:12:16;;;;;;;;;;;23.50;55.70;;;;;;5076329;28;19928;-56
2021/12/05 19:14:45;;;;;;;;;;;23.50;55.70;;;;;;5058646;28;19974;-55
2021/12/05 19:17:17;;;;;;;;;;;23.50;55.70;;;;;;5058859;28;19925;-58
2021/12/05 19:19:47;;;;;;;;;;;23.50;55.70;;;;;;5077034;28;20275;-55
2021/12/05 19:22:19;;;;;;;;;;;23.50;55.70;;;;;;5058555;28;19950;-55
2021/12/05 19:24:47;;;;;;;;;;;23.60;55.80;;;;;;5074856;28;19924;-55
2021/12/05 19:27:18;;;;;;;;;;;23.60;55.70;;;;;;5076317;28;19936;-57
2021/12/05 19:29:47;;;;;;;;;;;23.50;55.60;;;;;;5075925;28;20357;-57
2021/12/05 19:32:14;;;;;;;;;;;23.60;55.70;;;;;;5075958;28;19977;-53
2021/12/05 19:34:41;;;;;;;;;;;23.60;55.70;;;;;;5075915;28;20392;-57
2021/12/05 19:37:08;;;;;;;;;;;23.60;55.70;;;;;;5076141;28;19924;-55
2021/12/05 19:39:36;;;;;;;;;;;23.50;55.60;;;;;;5074961;28;19924;-51
2021/12/05 19:42:04;;;;;;;;;;;23.60;55.70;;;;;;5076021;28;19928;-53
2021/12/05 19:44:31;;;;;;;;;;;23.50;55.60;;;;;;5075631;28;19968;-55
2021/12/05 19:46:59;;;;;;;;;;;23.50;55.60;;;;;;5075677;28;19931;-53
2021/12/05 19:49:29;;;;;;;;;;;23.50;55.60;;;;;;5042634;28;20003;-52
2021/12/05 19:51:56;;;;;;;;;;;23.60;55.70;;;;;;5075491;28;19924;-55
2021/12/05 19:54:24;;;;;;;;;;;23.60;55.70;;;;;;5074843;28;19951;-57
2021/12/05 19:56:51;;;;;;;;;;;23.60;55.70;;;;;;5057827;28;20015;-56
2021/12/05 19:59:19;;;;;;;;;;;23.60;55.70;;;;;;5075273;28;19990;-50
2021/12/05 20:01:47;;;;;;;;;;;23.60;55.70;;;;;;5075232;28;19959;-52
2021/12/05 20:04:15;;;;;;;;;;;23.60;55.70;;;;;;5075236;28;19925;-58
2021/12/05 20:06:42;;;;;;;;;;;23.60;55.70;;;;;;5075280;28;19931;-57
2021/12/05 20:09:10;;;;;;;;;;;23.60;55.70;;;;;;5074421;28;19924;-57